Time;durP1;ratioP1;P1;durP2;ratioP2;P2;SDS_P1;SDS_P2;PMS_P1;PMS_P2;Temp;Humidity;BMP_temperature;BMP_pressure;BME280_temperature;BME280_humidity;BME280_pressure;Samples;Min_cycle;Max_cycle;Signal;HPM_P1;HPM_P2
2022/08/19 00:01:29;;;;;;;21.37;19.27;;;20.30;97.10;;;;;;6248706;23;20366;-45
2022/08/19 00:03:55;;;;;;;19.73;17.93;;;20.30;97.20;;;;;;6247188;23;20441;-44
2022/08/19 00:06:21;;;;;;;19.27;17.47;;;20.20;97.20;;;;;;6248557;23;20360;-42
2022/08/19 00:08:46;;;;;;;22.20;19.90;;;20.20;97.30;;;;;;6249002;23;20384;-43
2022/08/19 00:11:12;;;;;;;22.47;20.30;;;20.20;97.20;;;;;;6247955;23;20174;-44
2022/08/19 00:13:38;;;;;;;21.37;19.17;;;20.20;97.30;;;;;;6248873;23;20555;-42
2022/08/19 00:16:05;;;;;;;20.90;18.90;;;20.20;97.40;;;;;;6248439;23;20434;-40
2022/08/19 00:18:32;;;;;;;21.90;19.70;;;20.20;97.30;;;;;;6249033;23;20168;-44
2022/08/19 00:20:59;;;;;;;20.40;18.53;;;20.20;97.40;;;;;;6247627;23;20367;-53
2022/08/19 00:23:25;;;;;;;21.20;19.10;;;20.20;97.40;;;;;;6248714;23;20351;-40
2022/08/19 00:25:51;;;;;;;21.13;19.27;;;20.20;97.40;;;;;;6248588;23;20377;-40
2022/08/19 00:28:18;;;;;;;20.87;18.67;;;20.20;97.40;;;;;;6246446;23;20363;-43
2022/08/19 00:30:44;;;;;;;22.40;20.47;;;20.20;97.40;;;;;;6246527;23;20389;-42
2022/08/19 00:33:10;;;;;;;23.30;21.00;;;20.20;97.40;;;;;;6247764;23;20799;-43
2022/08/19 00:35:37;;;;;;;23.10;20.73;;;20.20;97.40;;;;;;6218262;23;20169;-45
2022/08/19 00:38:03;;;;;;;20.97;19.00;;;20.20;97.40;;;;;;6218614;23;20406;-42
2022/08/19 00:40:30;;;;;;;22.87;20.73;;;20.10;97.80;;;;;;6217934;23;20365;-44
2022/08/19 00:42:56;;;;;;;22.87;20.33;;;20.10;97.60;;;;;;6219661;23;20380;-41
2022/08/19 00:45:25;;;;;;;22.60;20.37;;;20.10;97.60;;;;;;6219541;23;20369;-42
2022/08/19 00:47:52;;;;;;;23.30;20.90;;;20.10;97.80;;;;;;6192896;23;20235;-41
2022/08/19 00:50:20;;;;;;;22.50;20.20;;;20.10;97.80;;;;;;6219331;23;20366;-43
2022/08/19 00:52:48;;;;;;;26.57;22.47;;;20.00;97.80;;;;;;6219650;23;20355;-44
2022/08/19 00:55:20;;;;;;;22.00;19.80;;;20.10;97.80;;;;;;6193498;23;20362;-42
2022/08/19 00:57:54;;;;;;;21.53;19.47;;;20.00;97.80;;;;;;6193919;23;20418;-42
2022/08/19 01:00:20;;;;;;;22.37;20.27;;;20.10;97.80;;;;;;6219408;23;20363;-42
2022/08/19 01:03:12;;;;;;;23.27;20.97;;;20.10;97.90;;;;;;6219564;23;20779;-42
2022/08/19 01:05:40;;;;;;;22.80;20.60;;;20.10;97.80;;;;;;6219848;23;20429;-40
2022/08/19 01:08:06;;;;;;;24.80;22.53;;;20.10;97.80;;;;;;6194141;23;20358;-41
2022/08/19 01:10:42;;;;;;;23.60;21.40;;;20.10;97.80;;;;;;6193362;23;20370;-43
2022/08/19 01:13:08;;;;;;;21.27;19.27;;;20.10;97.90;;;;;;6218997;23;20364;-43
2022/08/19 01:15:38;;;;;;;22.10;20.00;;;20.10;97.80;;;;;;6218930;23;20395;-40
2022/08/19 01:18:07;;;;;;;21.90;19.90;;;20.10;97.90;;;;;;6219255;23;20406;-41
2022/08/19 01:20:34;;;;;;;24.47;22.17;;;20.10;97.90;;;;;;6219739;23;20392;-41
2022/08/19 01:23:00;;;;;;;24.60;22.30;;;20.10;97.90;;;;;;6218788;23;20646;-41
2022/08/19 01:25:43;;;;;;;22.63;20.53;;;20.10;97.80;;;;;;6218961;23;20357;-45
2022/08/19 01:28:15;;;;;;;23.80;21.40;;;20.10;97.80;;;;;;6193871;23;20503;-40
2022/08/19 01:30:40;;;;;;;23.40;21.13;;;20.00;97.80;;;;;;6219189;23;20649;-43
2022/08/19 01:33:06;;;;;;;24.17;21.97;;;20.10;97.90;;;;;;6218836;23;20361;-42
2022/08/19 01:35:32;;;;;;;23.03;20.80;;;20.10;97.80;;;;;;6248939;23;20259;-42
2022/08/19 01:38:01;;;;;;;24.77;22.37;;;20.00;97.90;;;;;;6249348;23;20293;-44
2022/08/19 01:40:30;;;;;;;25.87;23.50;;;20.00;97.90;;;;;;6249736;23;20356;-43
2022/08/19 01:42:56;;;;;;;27.33;24.67;;;20.00;98.10;;;;;;6249710;23;20351;-47
2022/08/19 01:45:24;;;;;;;26.97;24.10;;;20.00;98.20;;;;;;6249554;22;20392;-42
2022/08/19 01:47:49;;;;;;;26.30;23.73;;;20.00;98.30;;;;;;6249639;23;20170;-44
2022/08/19 01:50:15;;;;;;;26.87;24.27;;;19.90;98.50;;;;;;6249082;23;20392;-43
2022/08/19 01:52:42;;;;;;;24.23;21.83;;;19.90;98.70;;;;;;6249271;23;20138;-43
2022/08/19 01:55:13;;;;;;;24.83;22.50;;;19.80;98.80;;;;;;6249570;23;20359;-43
2022/08/19 01:57:39;;;;;;;25.37;22.93;;;19.80;99.00;;;;;;6249687;22;20466;-44
2022/08/19 02:00:26;;;;;;;26.27;23.47;;;19.80;99.10;;;;;;6248101;23;20446;-43
2022/08/19 02:02:52;;;;;;;27.17;24.47;;;19.80;99.20;;;;;;6249388;23;20392;-42
2022/08/19 02:05:18;;;;;;;26.80;23.90;;;19.80;99.10;;;;;;6249282;23;20344;-45
2022/08/19 02:07:44;;;;;;;25.80;23.17;;;19.70;99.20;;;;;;6249466;23;20161;-43
2022/08/19 02:10:14;;;;;;;26.80;24.30;;;19.60;99.20;;;;;;6248786;23;20767;-43
2022/08/19 02:12:40;;;;;;;25.60;23.00;;;19.60;99.40;;;;;;6249222;23;20387;-44
2022/08/19 02:15:07;;;;;;;24.87;22.43;;;19.60;99.50;;;;;;6249187;23;20362;-44
2022/08/19 02:17:33;;;;;;;26.37;23.87;;;19.60;99.60;;;;;;6249177;23;20199;-44
2022/08/19 02:20:00;;;;;;;27.33;24.47;;;19.50;99.60;;;;;;6249435;23;20512;-44
2022/08/19 02:22:26;;;;;;;25.97;23.40;;;19.60;99.60;;;;;;6248134;23;20846;-45
2022/08/19 02:24:52;;;;;;;27.67;24.90;;;19.50;99.50;;;;;;6249017;23;20357;-43
2022/08/19 02:27:18;;;;;;;26.80;23.87;;;19.50;99.50;;;;;;6248863;22;20786;-45
2022/08/19 02:29:46;;;;;;;26.33;23.80;;;19.50;99.50;;;;;;6249331;23;20355;-42
2022/08/19 02:32:11;;;;;;;25.73;23.23;;;19.50;99.60;;;;;;6248768;23;20141;-43
2022/08/19 02:34:37;;;;;;;28.17;25.33;;;19.50;99.50;;;;;;6248985;23;20477;-42
2022/08/19 02:37:03;;;;;;;26.70;24.10;;;19.50;99.60;;;;;;6248831;23;20293;-42
2022/08/19 02:39:28;;;;;;;28.47;24.77;;;19.50;99.70;;;;;;6249317;23;20156;-43
2022/08/19 02:41:54;;;;;;;26.07;23.47;;;19.50;99.70;;;;;;6248635;23;20145;-41
2022/08/19 02:44:20;;;;;;;28.10;25.17;;;19.50;99.80;;;;;;6249549;23;20154;-42
2022/08/19 02:46:47;;;;;;;28.03;25.20;;;19.50;99.90;;;;;;6248629;23;20501;-43
2022/08/19 02:49:15;;;;;;;28.80;26.07;;;19.50;99.90;;;;;;6248800;23;20202;-44
2022/08/19 02:51:43;;;;;;;29.67;26.33;;;19.50;99.90;;;;;;6248637;23;20616;-42
2022/08/19 02:54:11;;;;;;;27.90;25.30;;;19.50;99.90;;;;;;6248330;23;20392;-44
2022/08/19 02:56:38;;;;;;;27.87;25.20;;;19.50;99.90;;;;;;6247884;23;20525;-42
2022/08/19 02:59:10;;;;;;;27.70;24.90;;;19.40;99.90;;;;;;6247892;23;20368;-40
2022/08/19 03:01:37;;;;;;;27.93;25.33;;;19.50;99.90;;;;;;6247247;23;20469;-43
2022/08/19 03:04:05;;;;;;;30.83;27.60;;;19.50;99.90;;;;;;6248921;23;20471;-43
2022/08/19 03:06:31;;;;;;;25.83;23.17;;;19.50;99.90;;;;;;6248344;23;20416;-45
2022/08/19 03:08:57;;;;;;;28.70;26.00;;;19.40;99.90;;;;;;6246910;23;20364;-42
2022/08/19 03:11:26;;;;;;;27.50;24.70;;;19.40;99.90;;;;;;6246364;23;20381;-43
2022/08/19 03:13:53;;;;;;;30.43;27.53;;;19.40;99.90;;;;;;6247279;23;20134;-41
2022/08/19 03:16:20;;;;;;;30.07;27.23;;;19.40;99.90;;;;;;6248619;23;20380;-42
2022/08/19 03:18:46;;;;;;;32.50;29.23;;;19.40;99.90;;;;;;6247889;23;20357;-44
2022/08/19 03:21:17;;;;;;;28.90;25.90;;;19.40;99.90;;;;;;6247794;23;20788;-43
2022/08/19 03:23:42;;;;;;;31.00;27.90;;;19.40;99.90;;;;;;6249025;22;20130;-42
2022/08/19 03:26:08;;;;;;;28.57;25.57;;;19.40;99.90;;;;;;6248039;23;20424;-43
2022/08/19 03:28:34;;;;;;;28.80;26.00;;;19.40;99.90;;;;;;6248789;23;20141;-43
2022/08/19 03:31:03;;;;;;;29.50;26.60;;;19.40;99.90;;;;;;6248571;23;20180;-43
2022/08/19 03:33:30;;;;;;;28.63;25.80;;;19.30;99.90;;;;;;6248571;23;20426;-43
2022/08/19 03:36:03;;;;;;;33.10;29.60;;;19.30;99.90;;;;;;6248045;23;20386;-44
2022/08/19 03:38:29;;;;;;;31.03;28.03;;;19.40;99.90;;;;;;6248639;23;20462;-42
2022/08/19 03:40:55;;;;;;;31.30;28.37;;;19.30;99.90;;;;;;6247037;23;20386;-41
2022/08/19 03:43:20;;;;;;;32.73;29.47;;;19.30;99.90;;;;;;6244474;23;20357;-42
2022/08/19 03:45:48;;;;;;;31.57;28.47;;;19.30;99.90;;;;;;6244446;23;20153;-41
2022/08/19 03:48:16;;;;;;;30.90;28.00;;;19.20;99.90;;;;;;6244348;23;20140;-43
2022/08/19 03:50:42;;;;;;;32.60;29.50;;;19.20;99.90;;;;;;6244810;23;20390;-43
2022/08/19 03:53:08;;;;;;;33.50;30.30;;;19.20;99.90;;;;;;6243750;23;20796;-43
2022/08/19 03:55:40;;;;;;;29.50;26.40;;;19.20;99.90;;;;;;6244377;23;20385;-44
2022/08/19 03:58:06;;;;;;;29.60;26.43;;;19.20;99.90;;;;;;6245307;23;20716;-44
2022/08/19 04:00:33;;;;;;;32.80;29.67;;;19.20;99.90;;;;;;6244501;23;20362;-42
2022/08/19 04:02:58;;;;;;;32.43;29.07;;;19.20;99.90;;;;;;6245290;23;20179;-41
2022/08/19 04:05:28;;;;;;;32.07;28.93;;;19.20;99.90;;;;;;6243493;23;20530;-44
2022/08/19 04:07:54;;;;;;;32.63;29.57;;;19.20;99.90;;;;;;6247359;23;20155;-46
2022/08/19 04:10:20;;;;;;;32.63;29.47;;;19.20;99.90;;;;;;6247002;23;20767;-41
2022/08/19 04:12:46;;;;;;;31.50;28.40;;;19.10;99.90;;;;;;6248101;23;20386;-44
2022/08/19 04:15:11;;;;;;;29.93;26.93;;;19.10;99.90;;;;;;6247759;23;20226;-45
2022/08/19 04:17:37;;;;;;;33.87;30.37;;;19.10;99.90;;;;;;6247985;23;20181;-42
2022/08/19 04:20:03;;;;;;;30.30;27.40;;;19.20;99.90;;;;;;6247514;23;20546;-42
2022/08/19 04:22:30;;;;;;;32.43;29.33;;;19.20;99.90;;;;;;6246317;23;20161;-43
2022/08/19 04:24:55;;;;;;;34.47;30.97;;;19.10;99.90;;;;;;6246732;23;20445;-45
2022/08/19 04:27:21;;;;;;;33.80;30.50;;;19.10;99.90;;;;;;6248173;23;20390;-42
2022/08/19 04:29:47;;;;;;;31.57;28.33;;;19.10;99.90;;;;;;6248280;23;20140;-43
2022/08/19 04:32:15;;;;;;;33.90;30.50;;;19.10;99.90;;;;;;6248168;23;20169;-46
2022/08/19 04:34:42;;;;;;;31.07;27.90;;;19.10;99.90;;;;;;6248335;23;20725;-43
2022/08/19 04:37:11;;;;;;;33.30;30.07;;;19.10;99.90;;;;;;6247846;22;20465;-44
2022/08/19 04:42:39;;;;;;;32.50;29.17;;;19.20;99.90;;;;;;6245777;23;20499;-43
2022/08/19 04:45:06;;;;;;;35.10;31.43;;;19.20;99.90;;;;;;6246340;23;20649;-46
2022/08/19 04:47:32;;;;;;;34.70;31.30;;;19.20;99.90;;;;;;6246808;23;20403;-46
2022/08/19 04:49:58;;;;;;;36.30;32.57;;;19.20;99.90;;;;;;6247078;23;20358;-46
2022/08/19 04:52:23;;;;;;;36.37;32.70;;;19.10;99.90;;;;;;6247326;23;20221;-44
2022/08/19 04:54:49;;;;;;;33.63;30.17;;;19.10;99.90;;;;;;6248396;23;20140;-44
2022/08/19 04:57:15;;;;;;;35.60;31.97;;;19.10;99.90;;;;;;6247463;23;20445;-43
2022/08/19 04:59:40;;;;;;;35.00;31.50;;;19.10;99.90;;;;;;6248673;23;20141;-44
2022/08/19 05:02:08;;;;;;;35.67;32.07;;;19.10;99.90;;;;;;6248205;23;20163;-42
2022/08/19 05:04:35;;;;;;;36.23;32.53;;;19.10;99.90;;;;;;6247247;23;20649;-46
2022/08/19 05:07:00;;;;;;;35.50;31.90;;;19.10;99.90;;;;;;6246955;23;20689;-41
2022/08/19 05:09:26;;;;;;;32.00;28.77;;;19.10;99.90;;;;;;6246244;23;20353;-45
2022/08/19 05:11:53;;;;;;;34.90;31.17;;;19.10;99.90;;;;;;6247308;23;20285;-46
2022/08/19 05:14:20;;;;;;;33.77;30.47;;;19.10;99.90;;;;;;6247748;23;20388;-44
2022/08/19 05:16:46;;;;;;;37.47;33.77;;;19.10;99.90;;;;;;6245885;23;20419;-44
2022/08/19 05:24:41;;;;;;;33.53;30.20;;;19.20;99.90;;;;;;6246319;23;20768;-44
2022/08/19 05:27:07;;;;;;;33.47;30.17;;;19.20;99.90;;;;;;6246374;23;20375;-46
2022/08/19 05:29:34;;;;;;;33.13;29.73;;;19.20;99.90;;;;;;6244733;23;20423;-46
2022/08/19 05:32:01;;;;;;;32.37;29.23;;;19.20;99.90;;;;;;6245260;23;20141;-44
2022/08/19 05:34:27;;;;;;;34.17;30.83;;;19.30;99.90;;;;;;6246972;23;20638;-44
2022/08/19 05:36:57;;;;;;;35.93;32.33;;;19.30;99.90;;;;;;6247192;23;20415;-43
2022/08/19 05:39:26;;;;;;;34.00;30.73;;;19.30;99.90;;;;;;6248323;23;20397;-48
2022/08/19 05:41:58;;;;;;;30.83;27.90;;;19.30;99.90;;;;;;6244918;23;20369;-42
2022/08/19 05:44:25;;;;;;;31.57;28.27;;;19.30;99.90;;;;;;6244019;23;20381;-44
2022/08/19 05:46:54;;;;;;;33.13;29.83;;;19.30;99.90;;;;;;6245164;23;20373;-44
2022/08/19 05:49:22;;;;;;;34.03;30.73;;;19.30;99.90;;;;;;6242895;23;20390;-43
2022/08/19 05:51:48;;;;;;;32.43;28.07;;;19.40;99.90;;;;;;6243963;23;20769;-40
2022/08/19 05:54:14;;;;;;;35.33;31.90;;;19.40;99.90;;;;;;6242869;23;20754;-45
2022/08/19 05:56:41;;;;;;;36.07;32.50;;;19.40;99.90;;;;;;6242923;23;20520;-42
2022/08/19 05:59:10;;;;;;;33.03;29.70;;;19.40;99.90;;;;;;6244355;23;20151;-46
2022/08/19 06:01:41;;;;;;;35.00;31.40;;;19.40;99.90;;;;;;6244043;23;20352;-45
2022/08/19 06:04:07;;;;;;;30.50;27.30;;;19.40;99.90;;;;;;6244645;23;20428;-46
2022/08/19 06:06:34;;;;;;;34.50;31.17;;;19.40;99.90;;;;;;6243312;23;20354;-42
2022/08/19 06:09:02;;;;;;;32.97;29.73;;;19.40;99.90;;;;;;6243823;23;20151;-44
2022/08/19 06:11:43;;;;;;;32.17;29.17;;;19.40;99.90;;;;;;6242345;23;20451;-43
2022/08/19 06:14:11;;;;;;;35.37;31.93;;;19.30;99.90;;;;;;6242297;23;20640;-42
2022/08/19 06:16:39;;;;;;;32.93;29.77;;;19.30;99.90;;;;;;6245641;23;20360;-43
2022/08/19 06:19:08;;;;;;;33.27;29.97;;;19.40;99.90;;;;;;6246764;23;20648;-43
2022/08/19 06:21:37;;;;;;;35.90;32.23;;;19.40;99.90;;;;;;6247209;23;20392;-43
2022/08/19 06:24:04;;;;;;;34.80;31.33;;;19.50;99.90;;;;;;6248017;23;20412;-43
2022/08/19 06:26:30;;;;;;;36.30;32.80;;;19.50;99.90;;;;;;6247192;23;20644;-43
2022/08/19 06:28:56;;;;;;;34.40;31.10;;;19.50;99.90;;;;;;6245676;23;20389;-43
2022/08/19 06:31:25;;;;;;;35.73;32.23;;;19.50;99.90;;;;;;6244501;23;20417;-46
2022/08/19 06:33:51;;;;;;;35.70;32.13;;;19.50;99.90;;;;;;6242615;23;20428;-42
2022/08/19 06:36:26;;;;;;;34.20;30.70;;;19.40;99.90;;;;;;6242953;23;20369;-43
2022/08/19 06:38:53;;;;;;;32.40;29.20;;;19.40;99.90;;;;;;6238994;23;20384;-46
2022/08/19 06:41:19;;;;;;;37.30;33.50;;;19.40;99.90;;;;;;6242962;23;20343;-43
2022/08/19 06:43:45;;;;;;;36.70;32.80;;;19.40;99.90;;;;;;6244628;23;20797;-42
2022/08/19 06:46:13;;;;;;;35.43;31.90;;;19.50;99.90;;;;;;6243706;23;20144;-43
2022/08/19 06:48:39;;;;;;;30.27;27.27;;;19.50;99.90;;;;;;6244561;23;20515;-46
2022/08/19 06:51:05;;;;;;;32.70;29.40;;;19.40;99.90;;;;;;6243932;23;20349;-42
2022/08/19 06:53:31;;;;;;;33.47;30.10;;;19.50;99.90;;;;;;6243940;23;20353;-44
2022/08/19 06:56:01;;;;;;;33.20;30.00;;;19.50;99.90;;;;;;6246360;23;20397;-44
2022/08/19 06:58:31;;;;;;;34.40;31.00;;;19.60;99.90;;;;;;6245578;23;20821;-43
2022/08/19 07:01:01;;;;;;;32.80;29.57;;;19.60;99.90;;;;;;6244359;23;20383;-42
2022/08/19 07:03:35;;;;;;;32.73;29.43;;;19.60;99.90;;;;;;6245112;23;20362;-43
2022/08/19 07:06:09;;;;;;;33.10;29.90;;;19.70;99.90;;;;;;6245159;23;20354;-43
2022/08/19 07:08:36;;;;;;;31.70;28.70;;;19.70;99.90;;;;;;6246297;23;20672;-43
2022/08/19 07:11:06;;;;;;;28.97;26.27;;;19.70;99.90;;;;;;6242727;23;20457;-45
2022/08/19 07:13:33;;;;;;;30.03;27.03;;;19.80;99.90;;;;;;6245158;23;20465;-45
2022/08/19 07:16:02;;;;;;;33.10;30.10;;;19.80;99.90;;;;;;6246165;23;20775;-42
2022/08/19 07:18:27;;;;;;;29.87;26.97;;;19.90;99.90;;;;;;6244902;23;20415;-43
2022/08/19 07:21:03;;;;;;;30.30;27.40;;;20.00;99.80;;;;;;6244585;23;20350;-46
2022/08/19 07:23:29;;;;;;;29.63;26.73;;;20.10;99.70;;;;;;6245757;23;20130;-44
2022/08/19 07:25:55;;;;;;;28.47;25.67;;;20.20;99.50;;;;;;6241332;23;20399;-43
2022/08/19 07:28:22;;;;;;;31.93;28.20;;;20.30;99.50;;;;;;6242853;23;20665;-45
2022/08/19 07:30:48;;;;;;;32.70;29.70;;;20.40;99.20;;;;;;6244426;23;20360;-45
2022/08/19 07:33:13;;;;;;;29.67;26.67;;;20.50;98.90;;;;;;6245303;23;20356;-43
2022/08/19 07:35:39;;;;;;;29.83;26.80;;;20.40;98.90;;;;;;6245763;23;20453;-45
2022/08/19 07:38:05;;;;;;;28.30;25.57;;;20.40;98.90;;;;;;6219977;23;20529;-43
2022/08/19 07:40:30;;;;;;;27.03;24.43;;;20.40;99.10;;;;;;6247364;23;20430;-43
2022/08/19 07:42:56;;;;;;;27.50;24.70;;;20.30;99.20;;;;;;6245713;23;20156;-49
2022/08/19 07:45:22;;;;;;;27.17;24.67;;;20.30;99.20;;;;;;6246698;23;20212;-45
2022/08/19 07:47:47;;;;;;;28.57;25.90;;;20.20;99.50;;;;;;6246778;23;20212;-44
2022/08/19 07:50:14;;;;;;;28.53;25.90;;;20.20;99.60;;;;;;6244830;23;20542;-45
2022/08/19 07:52:39;;;;;;;28.83;26.10;;;20.10;99.60;;;;;;6243970;23;20151;-47
2022/08/19 07:55:08;;;;;;;26.53;23.87;;;20.10;99.60;;;;;;6246095;23;20371;-46
2022/08/19 07:57:33;;;;;;;26.83;24.33;;;20.10;99.50;;;;;;6246672;23;20460;-45
2022/08/19 07:59:59;;;;;;;29.80;26.90;;;20.10;99.60;;;;;;6245911;23;20448;-44
2022/08/19 08:02:25;;;;;;;27.17;24.60;;;20.10;99.60;;;;;;6247720;23;20232;-45
2022/08/19 08:10:18;;;;;;;23.80;21.70;;;20.00;99.90;;;;;;6245473;23;20499;-47
2022/08/19 08:12:45;;;;;;;28.07;25.17;;;19.90;99.90;;;;;;6246157;23;20366;-45
2022/08/19 08:15:18;;;;;;;29.03;26.13;;;19.90;99.90;;;;;;6246037;23;20134;-44
2022/08/19 08:17:44;;;;;;;27.43;24.73;;;19.90;99.90;;;;;;6246149;23;20418;-44
2022/08/19 08:20:11;;;;;;;27.93;25.33;;;19.90;99.90;;;;;;6246232;23;20351;-42
2022/08/19 08:25:25;;;;;;;29.10;26.10;;;19.80;99.90;;;;;;6244329;23;20733;-44
2022/08/19 08:27:52;;;;;;;30.33;27.27;;;19.70;99.90;;;;;;6246429;23;20367;-43
2022/08/19 08:30:20;;;;;;;28.77;25.97;;;19.70;99.90;;;;;;6245568;23;20159;-43
2022/08/19 08:32:46;;;;;;;29.03;26.07;;;19.70;99.90;;;;;;6245406;23;20358;-46
2022/08/19 08:35:14;;;;;;;27.67;24.87;;;19.70;99.90;;;;;;6246090;23;20424;-45
2022/08/19 08:37:40;;;;;;;26.80;24.20;;;19.60;99.90;;;;;;6242922;22;20547;-45
2022/08/19 08:40:09;;;;;;;28.63;25.63;;;19.60;99.90;;;;;;6241082;23;20401;-44
2022/08/19 08:42:43;;;;;;;28.80;25.93;;;19.70;99.90;;;;;;6242256;23;20184;-45
2022/08/19 08:45:16;;;;;;;25.93;23.53;;;19.70;99.90;;;;;;6242085;23;20356;-45
2022/08/19 08:47:46;;;;;;;23.47;21.40;;;19.70;99.90;;;;;;6240049;23;20369;-45
2022/08/19 08:50:35;;;;;;;25.43;23.00;;;19.60;99.90;;;;;;6242951;23;20873;-44
2022/08/19 08:53:01;;;;;;;26.70;24.00;;;19.60;99.90;;;;;;6244353;23;20403;-45
2022/08/19 08:55:29;;;;;;;27.40;24.63;;;19.60;99.90;;;;;;6245083;23;20468;-47
2022/08/19 08:58:05;;;;;;;27.23;24.50;;;19.60;99.90;;;;;;6245615;23;20414;-45
2022/08/19 09:00:35;;;;;;;24.50;22.20;;;19.70;99.90;;;;;;6245785;23;20370;-45
2022/08/19 09:03:03;;;;;;;24.70;22.23;;;19.70;99.90;;;;;;6244958;23;20431;-45
2022/08/19 09:05:52;;;;;;;25.93;23.57;;;19.80;99.90;;;;;;6245062;23;20357;-43
2022/08/19 09:08:45;;;;;;;26.03;23.63;;;19.90;99.90;;;;;;6247367;22;20414;-52
2022/08/19 09:11:21;;;;;;;27.10;24.60;;;20.00;99.90;;;;;;6246160;22;20376;-44
2022/08/19 09:14:09;;;;;;;26.10;23.80;;;20.00;99.90;;;;;;6245772;23;20633;-45
2022/08/19 09:16:35;;;;;;;23.37;21.17;;;20.10;99.90;;;;;;6246588;22;20806;-44
2022/08/19 09:19:04;;;;;;;25.97;23.53;;;20.20;99.90;;;;;;6246408;23;20392;-44
2022/08/19 09:21:29;;;;;;;22.33;20.40;;;20.30;99.90;;;;;;6246005;23;20397;-43
2022/08/19 09:23:55;;;;;;;22.93;20.90;;;20.40;99.90;;;;;;6245193;23;20442;-44
2022/08/19 09:26:23;;;;;;;25.27;22.60;;;20.50;99.90;;;;;;6247350;23;20228;-45
2022/08/19 09:28:52;;;;;;;24.20;21.97;;;20.60;99.70;;;;;;6245650;23;20141;-44
2022/08/19 09:31:22;;;;;;;26.63;23.90;;;20.60;99.30;;;;;;6246379;23;20870;-45
2022/08/19 09:33:50;;;;;;;26.20;23.80;;;20.70;99.30;;;;;;6245902;23;20763;-45
2022/08/19 09:36:18;;;;;;;23.27;21.17;;;20.70;99.30;;;;;;6247107;23;20384;-47
2022/08/19 09:38:44;;;;;;;25.43;23.10;;;20.60;99.20;;;;;;6247268;23;20430;-45
2022/08/19 09:41:15;;;;;;;26.07;23.77;;;20.60;99.30;;;;;;6245946;23;20918;-46
2022/08/19 09:43:44;;;;;;;24.97;22.60;;;20.70;99.20;;;;;;6246840;23;20382;-44
2022/08/19 09:46:10;;;;;;;23.80;21.70;;;20.70;99.10;;;;;;6245489;23;20449;-44
2022/08/19 09:48:36;;;;;;;25.37;23.10;;;20.70;99.30;;;;;;6244952;23;20400;-45
2022/08/19 09:51:04;;;;;;;25.87;23.57;;;20.70;99.10;;;;;;6247164;23;20734;-45
2022/08/19 09:53:30;;;;;;;24.20;22.13;;;20.70;98.90;;;;;;6247205;23;20490;-45
2022/08/19 09:55:56;;;;;;;22.87;20.80;;;20.70;99.00;;;;;;6246975;23;20586;-42
2022/08/19 09:58:27;;;;;;;26.83;24.43;;;20.70;99.20;;;;;;6245851;23;20709;-43
2022/08/19 10:00:56;;;;;;;23.27;21.23;;;20.70;98.90;;;;;;6246017;23;20137;-43
2022/08/19 10:03:22;;;;;;;21.90;19.87;;;20.70;98.80;;;;;;6245015;23;20577;-52
2022/08/19 10:05:48;;;;;;;24.83;22.63;;;20.70;98.80;;;;;;6244499;23;20442;-47
2022/08/19 10:08:16;;;;;;;24.10;21.93;;;20.70;98.80;;;;;;6244507;23;20405;-43
2022/08/19 10:10:45;;;;;;;22.20;20.20;;;20.70;98.70;;;;;;6245541;23;20513;-45
2022/08/19 10:13:12;;;;;;;23.27;21.13;;;20.70;98.80;;;;;;6244698;23;20393;-44
2022/08/19 10:15:40;;;;;;;21.53;19.80;;;20.80;98.70;;;;;;6244254;23;20388;-46
2022/08/19 10:18:06;;;;;;;23.73;21.73;;;20.80;98.70;;;;;;6247827;23;20422;-45
2022/08/19 10:20:32;;;;;;;24.60;22.40;;;20.80;98.60;;;;;;6247441;23;20439;-44
2022/08/19 10:22:59;;;;;;;24.47;21.97;;;20.90;98.50;;;;;;6246245;23;20385;-47
2022/08/19 10:25:26;;;;;;;22.80;20.70;;;20.90;98.50;;;;;;6247922;23;20129;-45
2022/08/19 10:27:52;;;;;;;23.03;20.97;;;20.90;98.40;;;;;;6247650;23;20392;-44
2022/08/19 10:30:19;;;;;;;23.57;21.37;;;21.00;98.20;;;;;;6245794;23;20362;-45
2022/08/19 10:32:45;;;;;;;21.00;19.10;;;21.00;98.00;;;;;;6246915;23;20390;-44
2022/08/19 10:35:12;;;;;;;22.80;20.87;;;21.00;98.10;;;;;;6247920;23;20724;-44
2022/08/19 10:37:38;;;;;;;21.10;19.10;;;21.00;98.20;;;;;;6247127;23;20462;-43
2022/08/19 10:40:07;;;;;;;21.50;19.40;;;21.00;98.20;;;;;;6244055;23;20358;-44
2022/08/19 10:42:34;;;;;;;20.40;18.70;;;21.00;98.10;;;;;;6244567;23;20441;-42
2022/08/19 10:45:01;;;;;;;20.67;18.57;;;21.00;98.00;;;;;;6244550;23;20356;-52
2022/08/19 10:47:27;;;;;;;19.30;17.60;;;21.00;97.70;;;;;;6243233;23;20434;-46
2022/08/19 10:52:40;;;;;;;18.37;16.60;;;21.10;97.30;;;;;;6244320;23;20167;-45
2022/08/19 10:57:52;;;;;;;16.37;14.97;;;21.20;97.00;;;;;;6245785;23;20917;-44
2022/08/19 11:00:19;;;;;;;15.10;13.90;;;21.30;97.00;;;;;;6245616;23;20450;-43
2022/08/19 11:02:46;;;;;;;16.07;14.63;;;21.40;96.50;;;;;;6243941;23;20398;-45
2022/08/19 11:05:12;;;;;;;15.83;14.30;;;21.40;96.50;;;;;;6246029;23;20371;-44
2022/08/19 11:07:41;;;;;;;16.83;15.07;;;21.50;96.10;;;;;;6220011;23;20446;-45
2022/08/19 11:10:09;;;;;;;15.60;14.30;;;21.60;96.00;;;;;;6243067;23;20710;-44
2022/08/19 11:12:38;;;;;;;14.83;13.53;;;21.70;95.80;;;;;;6244706;23;20649;-42
2022/08/19 11:15:05;;;;;;;16.63;15.23;;;21.70;95.50;;;;;;6243139;23;20357;-45
2022/08/19 11:17:31;;;;;;;15.87;14.37;;;21.80;95.20;;;;;;6244718;23;20416;-45
2022/08/19 11:19:57;;;;;;;16.73;15.23;;;21.90;95.00;;;;;;6246023;23;20678;-47
2022/08/19 11:22:23;;;;;;;18.77;17.17;;;22.00;94.90;;;;;;6246951;23;20355;-48
2022/08/19 11:24:48;;;;;;;18.37;16.77;;;22.00;94.80;;;;;;6244301;23;20151;-44
2022/08/19 11:27:14;;;;;;;15.07;13.60;;;22.10;94.50;;;;;;6244964;23;20208;-44
2022/08/19 11:29:40;;;;;;;13.80;12.60;;;22.10;94.50;;;;;;6245099;23;20154;-44
2022/08/19 11:32:09;;;;;;;16.93;15.33;;;22.10;94.60;;;;;;6244272;23;20136;-48
2022/08/19 11:34:37;;;;;;;15.10;13.90;;;22.10;94.40;;;;;;6243023;23;20276;-45
2022/08/19 11:37:05;;;;;;;15.60;14.33;;;22.10;94.30;;;;;;6244176;23;20734;-43
2022/08/19 11:39:32;;;;;;;16.30;14.80;;;22.10;94.30;;;;;;6246205;22;20394;-44
2022/08/19 11:41:59;;;;;;;15.67;14.27;;;22.10;94.50;;;;;;6245547;23;20670;-43
2022/08/19 11:44:25;;;;;;;16.23;14.73;;;22.20;94.30;;;;;;6245930;22;20430;-44
2022/08/19 11:46:52;;;;;;;16.90;15.27;;;22.20;93.90;;;;;;6247338;22;20412;-44
2022/08/19 11:49:19;;;;;;;15.27;13.97;;;22.20;93.60;;;;;;6245524;23;20387;-45
2022/08/19 11:51:45;;;;;;;14.10;12.90;;;22.20;93.70;;;;;;6244452;23;20359;-43
2022/08/19 11:54:13;;;;;;;14.10;12.90;;;22.20;93.60;;;;;;6242199;23;20748;-46
2022/08/19 11:56:40;;;;;;;15.27;14.07;;;22.20;93.70;;;;;;6244432;23;20379;-47
2022/08/19 11:59:07;;;;;;;14.80;13.60;;;22.20;93.50;;;;;;6243676;23;20455;-43
2022/08/19 12:01:33;;;;;;;15.90;14.50;;;22.30;93.20;;;;;;6244172;23;20354;-45
2022/08/19 12:03:59;;;;;;;14.67;13.37;;;22.40;93.10;;;;;;6242094;23;20410;-46
2022/08/19 12:06:28;;;;;;;14.90;13.70;;;22.30;92.80;;;;;;6244839;23;20365;-43
2022/08/19 12:08:59;;;;;;;14.20;12.90;;;22.40;92.80;;;;;;6243230;23;20396;-46
2022/08/19 12:11:25;;;;;;;12.23;11.23;;;22.40;92.60;;;;;;6244248;23;20383;-43
2022/08/19 12:13:51;;;;;;;13.40;12.20;;;22.40;92.50;;;;;;6244931;23;20944;-45
2022/08/19 12:16:20;;;;;;;12.20;11.17;;;22.50;92.50;;;;;;6244133;23;20363;-43
2022/08/19 12:18:46;;;;;;;12.43;11.30;;;22.50;92.30;;;;;;6245363;23;20917;-43
2022/08/19 12:21:13;;;;;;;11.90;10.80;;;22.60;91.90;;;;;;6245548;23;20384;-44
2022/08/19 12:23:41;;;;;;;11.50;10.40;;;22.60;91.90;;;;;;6246619;23;20156;-46
2022/08/19 12:26:09;;;;;;;11.20;10.30;;;22.70;91.70;;;;;;6247547;23;20654;-45
2022/08/19 12:28:35;;;;;;;12.80;11.70;;;22.70;91.70;;;;;;6246612;23;20359;-44
2022/08/19 12:31:01;;;;;;;11.77;10.77;;;22.80;91.60;;;;;;6249081;23;20429;-44
2022/08/19 12:33:28;;;;;;;12.23;11.23;;;23.00;91.50;;;;;;6248358;23;20137;-42
2022/08/19 12:35:54;;;;;;;11.23;10.33;;;23.20;91.00;;;;;;6248583;23;20170;-44
2022/08/19 12:38:23;;;;;;;10.70;9.90;;;23.40;90.80;;;;;;6247358;22;20825;-45
2022/08/19 12:40:51;;;;;;;10.60;9.73;;;23.50;90.20;;;;;;6247176;23;20444;-43
2022/08/19 12:43:17;;;;;;;12.00;10.90;;;23.60;90.30;;;;;;6245574;23;20354;-43
2022/08/19 12:45:44;;;;;;;12.00;11.00;;;23.70;89.80;;;;;;6245387;23;20402;-45
2022/08/19 12:48:10;;;;;;;10.57;9.77;;;23.70;88.50;;;;;;6246622;23;20444;-44
2022/08/19 12:50:39;;;;;;;9.97;9.10;;;23.70;88.50;;;;;;6246837;23;20478;-44
2022/08/19 12:53:05;;;;;;;11.20;10.30;;;23.80;88.20;;;;;;6246697;23;20402;-44